createdAt,value
2022-10-22T00:02:24.785Z,14.67
2022-10-22T00:04:54.151Z,16.93
2022-10-22T00:07:23.626Z,15.80
2022-10-22T00:09:53.142Z,17.40
2022-10-22T00:12:22.403Z,15.87
2022-10-22T00:14:53.377Z,17.63
2022-10-22T00:17:22.980Z,16.33
2022-10-22T00:19:52.641Z,15.83
2022-10-22T00:22:21.971Z,17.07
2022-10-22T00:24:51.297Z,15.10
2022-10-22T00:27:20.952Z,16.10
2022-10-22T00:29:50.441Z,15.47
2022-10-22T00:32:21.193Z,14.77
2022-10-22T00:34:50.448Z,15.73
2022-10-22T00:37:20.042Z,17.67
2022-10-22T00:39:49.313Z,14.70
2022-10-22T00:42:23.272Z,15.13
2022-10-22T00:45:18.585Z,15.50
2022-10-22T00:47:54.453Z,14.10
2022-10-22T00:50:26.719Z,15.37
2022-10-22T00:52:56.619Z,15.67
2022-10-22T00:55:26.763Z,14.60
2022-10-22T00:57:57.038Z,14.53
2022-10-22T01:00:27.197Z,15.23
2022-10-22T01:02:58.215Z,14.90
2022-10-22T01:05:30.085Z,14.73
2022-10-22T01:07:59.786Z,15.23
2022-10-22T01:10:45.645Z,15.20
2022-10-22T01:13:23.908Z,14.70
2022-10-22T01:16:01.276Z,15.03
2022-10-22T01:18:38.903Z,15.17
2022-10-22T01:21:20.510Z,13.20
2022-10-22T01:24:08.129Z,14.10
2022-10-22T01:26:52.427Z,15.13
2022-10-22T01:29:26.028Z,15.43
2022-10-22T01:31:58.612Z,14.37
2022-10-22T01:34:28.669Z,14.47
2022-10-22T01:36:59.616Z,14.03
2022-10-22T01:39:29.876Z,14.47
2022-10-22T01:42:01.484Z,14.77
2022-10-22T01:44:33.561Z,13.70
2022-10-22T01:47:11.427Z,15.50
2022-10-22T01:50:10.733Z,14.23
2022-10-22T01:52:53.494Z,13.60
2022-10-22T01:55:28.965Z,13.50
2022-10-22T01:58:14.428Z,13.57
2022-10-22T02:00:50.670Z,14.50
2022-10-22T02:03:25.151Z,14.80
2022-10-22T02:05:56.920Z,15.23
2022-10-22T02:08:28.559Z,13.87
2022-10-22T02:10:59.863Z,16.10
2022-10-22T02:13:36.218Z,14.50
2022-10-22T02:16:09.711Z,14.87
2022-10-22T02:18:41.490Z,14.60
2022-10-22T02:21:11.011Z,14.93
2022-10-22T02:23:40.917Z,15.80
2022-10-22T02:26:16.466Z,14.40
2022-10-22T02:28:50.716Z,14.20
2022-10-22T02:31:25.311Z,13.43
2022-10-22T02:33:58.212Z,12.97
2022-10-22T02:36:27.643Z,14.47
2022-10-22T02:38:57.719Z,15.73
2022-10-22T02:41:27.040Z,14.43
2022-10-22T02:43:57.485Z,15.10
2022-10-22T02:46:28.846Z,15.33
2022-10-22T02:49:02.230Z,13.80
2022-10-22T02:51:31.758Z,13.30
2022-10-22T02:54:00.864Z,15.37
2022-10-22T02:56:29.907Z,15.43
2022-10-22T02:58:59.309Z,13.43
2022-10-22T03:01:30.444Z,14.10
2022-10-22T03:03:59.705Z,14.33
2022-10-22T03:06:29.099Z,14.10
2022-10-22T03:08:58.443Z,15.40
2022-10-22T03:11:27.961Z,13.47
2022-10-22T03:13:58.730Z,15.53
2022-10-22T03:16:29.905Z,17.50
2022-10-22T03:19:02.013Z,16.13
2022-10-22T03:21:35.595Z,16.03
2022-10-22T03:24:07.485Z,16.17
2022-10-22T03:26:37.081Z,15.50
2022-10-22T03:29:06.675Z,14.30
2022-10-22T03:31:38.397Z,14.70
2022-10-22T03:34:07.566Z,15.93
2022-10-22T03:36:37.287Z,15.97
2022-10-22T03:39:09.137Z,15.63
2022-10-22T03:41:38.944Z,15.20
2022-10-22T03:44:09.760Z,14.87
2022-10-22T03:46:40.385Z,15.33
2022-10-22T03:49:09.629Z,16.60
2022-10-22T03:51:39.381Z,15.07
2022-10-22T03:54:08.646Z,15.50
2022-10-22T03:56:37.859Z,14.70
2022-10-22T03:59:07.535Z,16.23
2022-10-22T04:01:37.071Z,15.13
2022-10-22T04:04:08.103Z,14.30
2022-10-22T04:06:37.400Z,17.17
2022-10-22T04:09:07.988Z,14.40
2022-10-22T04:11:37.409Z,14.50
2022-10-22T04:14:12.003Z,15.67
2022-10-22T04:16:41.776Z,14.37
2022-10-22T04:19:30.026Z,14.50
2022-10-22T04:22:00.253Z,15.97
2022-10-22T04:24:31.330Z,13.77
2022-10-22T04:27:00.935Z,15.07
2022-10-22T04:29:30.479Z,14.60
2022-10-22T04:32:03.492Z,15.37
2022-10-22T04:34:34.433Z,15.90
2022-10-22T04:37:04.926Z,15.03
2022-10-22T04:39:34.331Z,14.37
2022-10-22T04:42:03.953Z,15.40
2022-10-22T04:44:33.938Z,14.73
2022-10-22T04:47:03.213Z,13.80
2022-10-22T04:49:34.102Z,14.30
2022-10-22T04:52:03.553Z,13.97
2022-10-22T04:54:33.299Z,15.70
2022-10-22T04:57:02.759Z,14.70
2022-10-22T04:59:32.463Z,13.37
2022-10-22T05:02:01.704Z,13.83
2022-10-22T05:04:31.434Z,16.97
2022-10-22T05:07:02.286Z,14.30
2022-10-22T05:09:31.753Z,14.80
2022-10-22T05:12:01.110Z,16.27
2022-10-22T05:14:31.118Z,16.17
2022-10-22T05:17:14.145Z,17.03
2022-10-22T05:19:44.639Z,16.90
2022-10-22T05:22:16.590Z,17.07
2022-10-22T05:24:46.365Z,17.07
2022-10-22T05:29:48.504Z,15.33
2022-10-22T05:32:17.612Z,15.63
2022-10-22T05:34:46.731Z,17.10
2022-10-22T05:37:19.961Z,14.50
2022-10-22T05:39:57.471Z,16.17
2022-10-22T05:42:36.400Z,15.87
2022-10-22T05:45:08.816Z,15.03
2022-10-22T05:47:38.227Z,15.23
2022-10-22T05:50:11.179Z,14.93
2022-10-22T05:52:42.935Z,15.37
2022-10-22T05:55:13.831Z,17.27
2022-10-22T05:57:44.651Z,15.60
2022-10-22T06:00:16.544Z,15.20
2022-10-22T06:02:48.921Z,16.17
2022-10-22T06:05:19.397Z,15.13
2022-10-22T06:07:50.988Z,16.50
2022-10-22T06:10:22.229Z,16.00
2022-10-22T06:12:53.498Z,15.90
2022-10-22T06:15:22.528Z,15.63
2022-10-22T06:17:52.034Z,16.60
2022-10-22T06:20:21.375Z,16.67
2022-10-22T06:22:52.158Z,16.27
2022-10-22T06:25:21.452Z,18.20
2022-10-22T06:27:52.341Z,16.77
2022-10-22T06:30:23.373Z,19.67
2022-10-22T06:32:53.152Z,19.47
2022-10-22T06:35:24.215Z,18.93
2022-10-22T06:37:55.171Z,18.83
2022-10-22T06:40:30.471Z,18.30
2022-10-22T06:43:01.421Z,17.57
2022-10-22T06:45:30.826Z,16.10
2022-10-22T06:48:00.137Z,18.70
2022-10-22T06:50:30.206Z,19.07
2022-10-22T06:53:01.124Z,18.97
2022-10-22T06:55:30.287Z,19.40
2022-10-22T06:57:59.575Z,18.77
2022-10-22T07:00:29.283Z,19.30
2022-10-22T07:02:59.894Z,17.33
2022-10-22T07:05:29.120Z,18.03
2022-10-22T07:07:58.584Z,17.93
2022-10-22T07:10:30.806Z,17.50
2022-10-22T07:13:02.357Z,17.27
2022-10-22T07:15:32.033Z,17.93
2022-10-22T07:18:04.959Z,17.33
2022-10-22T07:20:37.234Z,14.53
2022-10-22T07:23:06.775Z,16.77
2022-10-22T07:25:40.178Z,14.37
2022-10-22T07:28:09.581Z,15.10
2022-10-22T07:30:40.313Z,16.30
2022-10-22T07:33:09.756Z,16.40
2022-10-22T07:35:39.884Z,14.20
2022-10-22T07:38:09.910Z,15.00
2022-10-22T07:40:40.772Z,14.10
2022-10-22T07:43:09.832Z,14.73
2022-10-22T07:45:39.097Z,14.83
2022-10-22T07:48:08.878Z,14.73
2022-10-22T07:50:38.201Z,13.70
2022-10-22T07:53:09.450Z,14.50
2022-10-22T07:55:43.032Z,14.70
2022-10-22T07:58:12.193Z,13.10
2022-10-22T08:00:41.787Z,13.73
2022-10-22T08:03:11.247Z,12.97
2022-10-22T08:05:41.172Z,12.63
2022-10-22T09:06:37.226Z,10.23
2022-10-22T09:12:38.392Z,12.23
2022-10-22T09:15:10.791Z,16.80
2022-10-22T09:17:47.428Z,14.63
2022-10-22T09:20:28.732Z,12.77
2022-10-22T09:23:14.139Z,12.17
2022-10-22T09:25:46.991Z,10.50
2022-10-22T09:28:18.778Z,9.70
2022-10-22T09:30:48.407Z,10.67
2022-10-22T09:33:22.628Z,12.63
2022-10-22T09:35:58.838Z,10.47
2022-10-22T09:38:31.814Z,10.07
2022-10-22T09:41:03.959Z,10.47
2022-10-22T09:43:36.281Z,11.27
2022-10-22T09:46:09.562Z,13.20
2022-10-22T09:48:41.112Z,12.63
2022-10-22T09:51:16.641Z,12.57
2022-10-22T09:54:19.617Z,14.27
2022-10-22T09:56:58.536Z,14.50
2022-10-22T09:59:32.571Z,14.93
2022-10-22T10:02:19.460Z,13.50
2022-10-22T10:04:53.645Z,12.63
2022-10-22T11:06:25.391Z,13.90
2022-10-22T11:08:59.236Z,12.77
2022-10-22T11:11:36.951Z,14.20
2022-10-22T11:14:12.952Z,14.87
2022-10-22T11:16:46.221Z,13.30
2022-10-22T11:19:22.998Z,14.10
2022-10-22T11:22:10.593Z,14.17
2022-10-22T11:24:44.975Z,12.87
2022-10-22T11:27:23.450Z,12.40
2022-10-22T11:29:57.555Z,12.93
2022-10-22T11:32:28.346Z,12.57
2022-10-22T11:34:59.818Z,11.60
2022-10-22T11:37:34.945Z,12.70
2022-10-22T11:40:07.245Z,14.37
2022-10-22T11:42:39.730Z,13.67
2022-10-22T11:45:29.725Z,13.87
2022-10-22T11:48:07.310Z,14.30
2022-10-22T11:50:52.983Z,15.97
2022-10-22T11:53:32.979Z,16.83
2022-10-22T11:56:21.241Z,17.20
2022-10-22T11:58:53.811Z,16.80
2022-10-22T12:01:27.482Z,16.70
2022-10-22T12:04:22.012Z,17.97
2022-10-22T12:06:59.640Z,17.90
2022-10-22T12:09:32.918Z,20.13
2022-10-22T12:12:13.619Z,20.70
2022-10-22T12:14:55.451Z,22.50
2022-10-22T12:17:27.589Z,21.50
2022-10-22T12:20:03.153Z,21.33
2022-10-22T12:22:37.238Z,21.03
2022-10-22T12:25:20.141Z,20.60
2022-10-22T12:27:55.153Z,20.90
2022-10-22T12:30:26.181Z,19.10
2022-10-22T12:32:57.930Z,19.60
2022-10-22T12:35:30.285Z,19.03
2022-10-22T12:38:02.305Z,18.73
2022-10-22T12:40:36.394Z,18.90
2022-10-22T12:43:12.527Z,16.73
2022-10-22T12:45:42.408Z,19.47
2022-10-22T12:48:18.024Z,20.43
2022-10-22T12:50:50.894Z,19.13
2022-10-22T12:53:23.546Z,19.57
2022-10-22T12:55:56.902Z,19.40
2022-10-22T12:58:29.875Z,20.73
2022-10-22T13:01:02.247Z,21.20
2022-10-22T13:03:36.079Z,20.83
2022-10-22T13:06:15.792Z,19.77
2022-10-22T13:08:45.389Z,19.83
2022-10-22T13:11:22.622Z,19.60
2022-10-22T13:13:52.311Z,20.03
2022-10-22T13:16:24.414Z,19.23
2022-10-22T13:18:55.252Z,19.50
2022-10-22T13:21:31.444Z,20.60
2022-10-22T13:24:02.943Z,19.53
2022-10-22T13:26:37.191Z,20.43
2022-10-22T13:29:12.536Z,21.27
2022-10-22T13:31:47.527Z,20.10
2022-10-22T13:34:22.265Z,22.00
2022-10-22T13:36:55.315Z,18.87
2022-10-22T13:39:26.402Z,19.00
2022-10-22T13:42:26.648Z,17.57
2022-10-22T13:44:58.709Z,18.70
2022-10-22T13:47:30.014Z,18.20
2022-10-22T13:50:05.352Z,18.63
2022-10-22T13:52:39.586Z,17.37
2022-10-22T13:55:16.110Z,18.60
2022-10-22T13:57:46.984Z,18.13
2022-10-22T14:00:18.974Z,18.57
2022-10-22T14:02:50.567Z,16.67
2022-10-22T14:05:21.887Z,19.50
2022-10-22T14:07:51.056Z,18.40
2022-10-22T14:10:22.663Z,18.13
2022-10-22T14:12:54.148Z,19.70
2022-10-22T14:15:25.234Z,18.80
2022-10-22T14:17:57.910Z,17.97
2022-10-22T14:20:29.433Z,18.60
2022-10-22T14:23:01.424Z,18.50
2022-10-22T14:25:31.608Z,19.10
2022-10-22T14:28:02.238Z,17.37
2022-10-22T14:30:32.917Z,20.03
2022-10-22T14:33:02.112Z,18.07
2022-10-22T14:35:31.903Z,17.93
2022-10-22T14:38:01.491Z,19.57
2022-10-22T14:40:30.925Z,22.20
2022-10-22T14:43:02.285Z,21.97
2022-10-22T14:45:31.798Z,22.90
2022-10-22T14:48:01.980Z,23.40
2022-10-22T14:50:31.351Z,26.47
2022-10-22T14:53:00.709Z,24.40
2022-10-22T14:55:30.397Z,27.20
2022-10-22T14:58:01.069Z,26.47
2022-10-22T15:00:30.801Z,24.53
2022-10-22T15:03:03.473Z,27.17
2022-10-22T15:05:33.752Z,25.20
2022-10-22T15:08:03.686Z,23.47
2022-10-22T15:10:33.174Z,23.57
2022-10-22T15:13:04.240Z,23.57
2022-10-22T15:15:39.421Z,24.70
2022-10-22T15:18:09.673Z,23.57
2022-10-22T15:20:38.810Z,23.20
2022-10-22T15:23:08.139Z,23.47
2022-10-22T15:25:37.850Z,26.30
2022-10-22T15:28:10.049Z,22.87
2022-10-22T15:30:39.537Z,26.70
2022-10-22T15:33:09.161Z,23.40
2022-10-22T15:35:38.612Z,24.57
2022-10-22T15:38:09.388Z,22.77
2022-10-22T15:40:38.553Z,22.60
2022-10-22T15:43:09.211Z,21.90
2022-10-22T15:45:38.606Z,23.23
2022-10-22T15:48:08.602Z,19.87
2022-10-22T15:50:40.183Z,20.37
2022-10-22T15:53:09.510Z,22.57
2022-10-22T15:56:04.516Z,19.13
2022-10-22T15:58:40.171Z,19.70
2022-10-22T16:01:11.596Z,18.83
2022-10-22T16:03:42.504Z,19.27
2022-10-22T16:06:12.335Z,21.10
2022-10-22T16:08:42.056Z,17.73
2022-10-22T16:11:11.723Z,18.73
2022-10-22T16:13:42.991Z,19.97
2022-10-22T16:16:12.592Z,18.17
2022-10-22T16:18:44.595Z,17.57
2022-10-22T16:21:15.497Z,19.80
2022-10-22T16:23:45.303Z,15.73
2022-10-22T16:26:14.958Z,18.37
2022-10-22T16:28:46.062Z,16.87
2022-10-22T16:31:17.831Z,15.83
2022-10-22T16:33:50.254Z,19.30
2022-10-22T16:36:20.974Z,17.10
2022-10-22T16:38:50.705Z,16.47
2022-10-22T16:41:22.227Z,16.60
2022-10-22T16:43:56.330Z,16.33
2022-10-22T16:46:25.550Z,16.00
2022-10-22T16:48:55.087Z,15.43
2022-10-22T16:51:25.923Z,14.80
2022-10-22T16:53:55.898Z,14.60
2022-10-22T16:56:26.064Z,16.20
2022-10-22T16:58:58.435Z,13.93
2022-10-22T17:01:29.258Z,15.90
2022-10-22T17:04:00.905Z,14.57
2022-10-22T17:06:30.166Z,14.13
2022-10-22T17:08:59.544Z,14.33
2022-10-22T17:11:30.265Z,15.70
2022-10-22T17:14:01.005Z,14.50
2022-10-22T17:16:30.761Z,15.93
2022-10-22T17:19:00.108Z,15.30
2022-10-22T17:21:29.324Z,15.50
2022-10-22T17:23:59.577Z,15.10
2022-10-22T17:26:28.898Z,16.23
2022-10-22T17:28:59.850Z,17.23
2022-10-22T17:31:33.251Z,19.43
2022-10-22T17:34:02.562Z,18.87
2022-10-22T17:36:35.645Z,21.67
2022-10-22T17:39:07.323Z,19.77
2022-10-22T17:41:38.089Z,19.60
2022-10-22T17:44:10.376Z,19.70
2022-10-22T17:46:39.951Z,18.83
2022-10-22T17:49:16.430Z,19.73
2022-10-22T17:51:46.014Z,17.27
2022-10-22T17:54:15.689Z,16.67
2022-10-22T17:56:47.454Z,16.33
2022-10-22T17:59:19.144Z,17.27
2022-10-22T18:01:48.840Z,17.13
2022-10-22T18:04:19.701Z,17.47
2022-10-22T18:06:49.283Z,16.83
2022-10-22T18:09:20.090Z,16.10
2022-10-22T18:11:50.067Z,19.87
2022-10-22T18:14:21.853Z,20.20
2022-10-22T18:16:51.705Z,20.60
2022-10-22T18:19:23.281Z,21.30
2022-10-22T18:21:53.314Z,23.23
2022-10-22T18:24:22.442Z,21.77
2022-10-22T18:26:52.428Z,22.87
2022-10-22T18:29:23.156Z,21.77
2022-10-22T18:31:57.550Z,22.60
2022-10-22T18:34:26.935Z,21.37
2022-10-22T18:36:56.536Z,20.27
2022-10-22T18:39:25.973Z,21.90
2022-10-22T18:41:55.474Z,20.07
2022-10-22T18:44:26.260Z,20.30
2022-10-22T18:46:56.000Z,21.23
2022-10-22T18:49:26.786Z,20.33
2022-10-22T18:51:56.322Z,21.90
2022-10-22T18:54:25.598Z,20.47
2022-10-22T18:56:59.456Z,21.63
2022-10-22T18:59:33.759Z,20.50
2022-10-22T19:02:02.989Z,19.00
2022-10-22T19:04:37.095Z,21.63
2022-10-22T19:09:42.107Z,22.27
2022-10-22T19:12:15.008Z,23.93
2022-10-22T19:14:46.349Z,22.87
2022-10-22T19:17:15.905Z,24.60
2022-10-22T19:19:46.457Z,26.23
2022-10-22T19:22:15.875Z,24.53
2022-10-22T19:24:45.123Z,24.10
2022-10-22T19:27:14.481Z,24.77
2022-10-22T19:29:45.733Z,27.87
2022-10-22T19:32:15.291Z,28.80
2022-10-22T19:34:45.710Z,27.83
2022-10-22T19:37:15.133Z,30.97
2022-10-22T19:39:44.457Z,34.07
2022-10-22T19:42:13.758Z,33.57
2022-10-22T19:44:44.915Z,32.00
2022-10-22T19:47:14.149Z,32.17
2022-10-22T19:49:43.654Z,31.80
2022-10-22T19:52:13.001Z,32.90
2022-10-22T19:54:45.571Z,30.37
2022-10-22T19:57:17.359Z,31.47
2022-10-22T19:59:48.643Z,30.53
2022-10-22T20:02:19.031Z,30.17
2022-10-22T20:04:49.956Z,28.20
2022-10-22T20:07:19.235Z,27.57
2022-10-22T20:09:48.472Z,27.97
2022-10-22T20:15:07.145Z,27.97
2022-10-22T20:17:36.606Z,27.00
2022-10-22T20:20:07.005Z,25.17
2022-10-22T20:22:36.163Z,26.40
2022-10-22T20:25:06.276Z,25.37
2022-10-22T20:27:35.714Z,24.63
2022-10-22T20:30:07.780Z,24.87
2022-10-22T20:32:39.437Z,25.67
2022-10-22T20:35:09.985Z,24.00
2022-10-22T20:37:39.274Z,25.27
2022-10-22T20:40:09.687Z,22.63
2022-10-22T20:42:39.019Z,22.30
2022-10-22T20:45:11.109Z,20.80
2022-10-22T20:47:51.472Z,23.00
2022-10-22T20:50:24.216Z,23.07
2022-10-22T20:52:53.454Z,24.17
2022-10-22T20:55:22.794Z,18.57
2022-10-22T20:57:52.033Z,18.20
2022-10-22T21:00:22.937Z,16.77
2022-10-22T21:02:52.468Z,15.23
2022-10-22T21:05:21.967Z,12.30
2022-10-22T21:07:51.230Z,13.87
2022-10-22T21:10:20.676Z,11.73
2022-10-22T21:12:49.889Z,11.50
2022-10-22T21:15:19.058Z,12.80
2022-10-22T21:17:49.473Z,11.53
2022-10-22T21:20:21.031Z,11.60
2022-10-22T21:22:53.374Z,10.23
2022-10-22T21:25:22.535Z,11.13
2022-10-22T21:27:51.774Z,10.67
2022-10-22T21:30:21.344Z,12.03
2022-10-22T21:32:52.805Z,12.40
2022-10-22T21:35:22.091Z,15.00
2022-10-22T21:37:51.276Z,14.73
2022-10-22T21:40:20.888Z,12.93
2022-10-22T21:42:51.897Z,12.77
2022-10-22T21:45:23.248Z,12.97
2022-10-22T21:47:53.995Z,12.80
2022-10-22T21:50:23.725Z,12.33
2022-10-22T21:52:59.736Z,12.80
2022-10-22T21:55:30.455Z,10.70
2022-10-22T21:57:59.790Z,12.23
2022-10-22T22:00:29.032Z,10.60
2022-10-22T22:03:00.153Z,9.80
2022-10-22T22:05:30.477Z,10.57
2022-10-22T22:08:00.114Z,10.13
2022-10-22T22:10:29.825Z,9.60
2022-10-22T22:12:59.070Z,10.43
2022-10-22T22:15:28.869Z,10.07
2022-10-22T22:17:59.897Z,9.60
2022-10-22T22:20:29.773Z,10.43
2022-10-22T22:22:59.367Z,8.50
2022-10-22T22:25:28.587Z,9.67
2022-10-22T22:27:58.042Z,9.40
2022-10-22T22:30:27.449Z,12.00
2022-10-22T22:32:58.269Z,10.53
2022-10-22T22:35:27.878Z,10.10
2022-10-22T22:37:57.099Z,9.60
2022-10-22T22:40:29.151Z,9.90
2022-10-22T22:43:02.067Z,10.20
2022-10-22T22:45:31.635Z,9.43
2022-10-22T22:48:02.338Z,8.77
2022-10-22T22:50:31.850Z,8.90
2022-10-22T22:53:02.456Z,8.37
2022-10-22T22:55:34.816Z,8.67
2022-10-22T22:58:04.169Z,8.93
2022-10-22T23:00:33.398Z,10.93
2022-10-22T23:03:04.470Z,9.93
2022-10-22T23:05:33.911Z,12.03
2022-10-22T23:08:03.213Z,9.80
2022-10-22T23:10:32.824Z,8.50
2022-10-22T23:13:02.246Z,9.30
2022-10-22T23:15:31.538Z,9.90
2022-10-22T23:18:01.007Z,10.10
2022-10-22T23:20:32.083Z,9.47
2022-10-22T23:23:01.807Z,8.33
2022-10-22T23:25:31.375Z,10.07
2022-10-22T23:28:00.620Z,9.80
2022-10-22T23:30:29.851Z,9.60
2022-10-22T23:32:59.369Z,8.43
2022-10-22T23:35:30.269Z,9.50
2022-10-22T23:38:01.251Z,9.07
2022-10-22T23:40:30.874Z,8.43
2022-10-22T23:43:00.174Z,9.03
2022-10-22T23:45:29.390Z,8.87
2022-10-22T23:47:58.775Z,9.43
2022-10-22T23:50:28.214Z,9.30
2022-10-22T23:52:57.837Z,9.57
2022-10-22T23:55:28.851Z,9.10
2022-10-22T23:57:58.176Z,9.70
